createdAt,value
2022-12-25T00:00:26.447Z,10.80
2022-12-25T00:02:55.510Z,10.80
2022-12-25T00:05:25.019Z,10.80
2022-12-25T00:07:53.545Z,10.80
2022-12-25T00:10:21.890Z,10.80
2022-12-25T00:12:51.590Z,10.80
2022-12-25T00:15:20.087Z,10.80
2022-12-25T00:17:48.346Z,10.80
2022-12-25T00:20:16.635Z,10.80
2022-12-25T00:22:44.856Z,10.80
2022-12-25T00:25:13.283Z,10.80
2022-12-25T00:27:41.568Z,10.90
2022-12-25T00:30:12.244Z,10.90
2022-12-25T00:32:42.151Z,10.90
2022-12-25T00:35:10.954Z,10.90
2022-12-25T00:37:39.293Z,10.90
2022-12-25T00:40:09.005Z,10.90
2022-12-25T00:42:37.366Z,10.90
2022-12-25T00:45:06.829Z,11.00
2022-12-25T00:47:36.510Z,11.00
2022-12-25T00:50:05.452Z,11.00
2022-12-25T00:52:33.924Z,11.00
2022-12-25T00:55:02.251Z,11.00
2022-12-25T00:57:30.545Z,11.00
2022-12-25T00:59:58.908Z,11.10
2022-12-25T01:02:43.502Z,11.00
2022-12-25T01:05:11.908Z,11.10
2022-12-25T01:07:40.129Z,11.10
2022-12-25T01:10:25.192Z,11.10
2022-12-25T01:12:53.714Z,11.10
2022-12-25T01:15:22.255Z,11.10
2022-12-25T01:17:51.923Z,11.10
2022-12-25T01:20:20.674Z,11.10
2022-12-25T01:22:48.951Z,11.10
2022-12-25T01:25:17.318Z,11.10
2022-12-25T01:27:45.576Z,11.10
2022-12-25T01:30:14.233Z,11.00
2022-12-25T01:32:42.479Z,11.10
2022-12-25T01:35:12.518Z,11.10
2022-12-25T01:37:40.821Z,11.10
2022-12-25T01:40:10.255Z,11.10
2022-12-25T01:42:38.883Z,11.10
2022-12-25T01:45:41.495Z,11.10
2022-12-25T01:48:14.217Z,11.10
2022-12-25T01:50:46.652Z,11.10
2022-12-25T01:53:15.539Z,11.10
2022-12-25T01:55:45.982Z,11.10
2022-12-25T01:58:14.757Z,11.10
2022-12-25T02:00:43.141Z,11.10
2022-12-25T02:03:11.523Z,11.10
2022-12-25T02:05:40.384Z,11.10
2022-12-25T02:08:12.891Z,11.10
2022-12-25T02:10:43.162Z,11.10
2022-12-25T02:13:13.860Z,11.10
2022-12-25T02:15:53.802Z,11.10
2022-12-25T02:18:31.398Z,11.20
2022-12-25T02:21:19.113Z,11.10
2022-12-25T02:24:11.005Z,11.10
2022-12-25T02:27:01.638Z,11.10
2022-12-25T02:29:37.274Z,11.10
2022-12-25T02:32:15.455Z,11.10
2022-12-25T02:34:48.031Z,11.10
2022-12-25T02:37:20.890Z,11.10
2022-12-25T02:39:58.908Z,11.20
2022-12-25T02:42:55.393Z,11.20
2022-12-25T02:45:49.256Z,11.20
2022-12-25T02:48:36.744Z,11.20
2022-12-25T02:51:26.040Z,11.20
2022-12-25T02:54:14.824Z,11.20
2022-12-25T02:57:05.451Z,11.20
2022-12-25T02:59:54.316Z,11.20
2022-12-25T03:02:43.593Z,11.20
2022-12-25T03:05:33.490Z,11.20
2022-12-25T03:08:07.702Z,11.20
2022-12-25T03:10:57.587Z,11.20
2022-12-25T03:13:29.900Z,11.20
2022-12-25T03:16:15.743Z,11.20
2022-12-25T03:18:45.693Z,11.20
2022-12-25T03:21:31.332Z,11.20
2022-12-25T03:24:19.695Z,11.20
2022-12-25T03:26:57.481Z,11.20
2022-12-25T03:29:59.503Z,11.20
2022-12-25T03:32:36.653Z,11.20
2022-12-25T03:35:25.691Z,11.20
2022-12-25T03:38:33.121Z,11.20
2022-12-25T03:41:36.801Z,11.20
2022-12-25T03:44:28.747Z,11.20
2022-12-25T03:47:24.121Z,11.20
2022-12-25T03:50:15.752Z,11.20
2022-12-25T03:53:04.475Z,11.10
2022-12-25T03:55:51.821Z,11.10
2022-12-25T03:58:37.964Z,11.10
2022-12-25T04:01:23.879Z,11.10
2022-12-25T04:04:09.740Z,11.10
2022-12-25T04:06:55.805Z,11.10
2022-12-25T04:09:43.089Z,11.10
2022-12-25T04:12:43.677Z,11.10
2022-12-25T04:15:29.703Z,11.10
2022-12-25T04:18:15.393Z,11.10
2022-12-25T04:21:00.864Z,11.10
2022-12-25T04:23:46.625Z,11.10
2022-12-25T04:26:33.819Z,11.10
2022-12-25T04:29:19.646Z,11.10
2022-12-25T04:32:05.315Z,11.10
2022-12-25T04:34:51.254Z,11.10
2022-12-25T04:37:19.685Z,11.10
2022-12-25T04:39:47.904Z,11.10
2022-12-25T04:42:17.661Z,11.10
2022-12-25T04:44:45.967Z,11.10
2022-12-25T04:47:14.519Z,11.10
2022-12-25T04:49:42.816Z,11.10
2022-12-25T04:52:11.071Z,11.10
2022-12-25T04:54:39.699Z,11.10
2022-12-25T04:57:07.998Z,11.00
2022-12-25T04:59:37.641Z,11.10
2022-12-25T05:02:05.907Z,11.10
2022-12-25T05:04:34.309Z,11.10
2022-12-25T05:07:02.583Z,11.10
2022-12-25T05:09:31.279Z,11.10
2022-12-25T05:11:59.715Z,11.10
2022-12-25T05:14:28.079Z,11.10
2022-12-25T05:16:57.732Z,11.10
2022-12-25T05:19:27.156Z,11.10
2022-12-25T05:21:55.691Z,11.10
2022-12-25T05:24:41.676Z,11.10
2022-12-25T05:27:10.012Z,11.10
2022-12-25T05:29:38.396Z,11.00
2022-12-25T05:32:08.159Z,11.10
2022-12-25T05:34:36.416Z,11.10
2022-12-25T05:37:04.759Z,11.10
2022-12-25T05:39:33.125Z,11.10
2022-12-25T05:42:01.421Z,11.10
2022-12-25T05:44:29.757Z,11.10
2022-12-25T05:46:58.051Z,11.10
2022-12-25T05:49:27.833Z,11.10
2022-12-25T05:51:56.075Z,11.10
2022-12-25T05:54:24.389Z,11.10
2022-12-25T05:56:52.690Z,11.10
2022-12-25T05:59:20.936Z,11.10
2022-12-25T06:01:49.327Z,11.10
2022-12-25T06:04:17.821Z,11.10
2022-12-25T06:06:47.544Z,11.10
2022-12-25T06:09:15.880Z,11.10
2022-12-25T06:11:44.146Z,11.10
2022-12-25T06:14:13.214Z,11.10
2022-12-25T06:16:41.646Z,11.10
2022-12-25T06:19:10.172Z,11.10
2022-12-25T06:21:38.443Z,11.10
2022-12-25T06:24:08.582Z,11.10
2022-12-25T06:26:36.963Z,11.10
2022-12-25T06:29:05.317Z,11.10
2022-12-25T06:31:33.780Z,11.10
2022-12-25T06:34:02.081Z,11.10
2022-12-25T06:36:30.438Z,11.10
2022-12-25T06:39:01.528Z,11.10
2022-12-25T06:41:31.880Z,11.20
2022-12-25T06:44:02.196Z,11.10
2022-12-25T06:46:31.436Z,11.10
2022-12-25T06:49:00.539Z,11.10
2022-12-25T06:51:30.380Z,11.10
2022-12-25T06:53:59.430Z,11.10
2022-12-25T06:56:31.071Z,11.10
2022-12-25T06:59:01.138Z,11.10
2022-12-25T07:01:32.072Z,11.10
2022-12-25T07:04:03.268Z,11.10
2022-12-25T07:06:31.630Z,11.10
2022-12-25T07:08:59.913Z,11.10
2022-12-25T07:11:28.216Z,11.10
2022-12-25T07:13:57.822Z,11.10
2022-12-25T07:16:26.215Z,11.10
2022-12-25T07:18:54.533Z,11.20
2022-12-25T07:21:22.944Z,11.10
2022-12-25T07:23:51.557Z,11.10
2022-12-25T07:26:19.877Z,11.10
2022-12-25T07:28:48.223Z,11.10
2022-12-25T07:31:19.843Z,11.10
2022-12-25T07:33:48.311Z,11.10
2022-12-25T07:36:16.618Z,11.10
2022-12-25T07:38:45.305Z,11.00
2022-12-25T07:41:13.887Z,11.10
2022-12-25T07:43:42.709Z,11.10
2022-12-25T07:46:11.270Z,11.10
2022-12-25T07:48:41.531Z,11.10
2022-12-25T07:51:13.910Z,11.10
2022-12-25T07:53:42.505Z,11.00
2022-12-25T07:56:15.017Z,11.10
2022-12-25T07:58:44.045Z,11.10
2022-12-25T08:01:14.986Z,11.10
2022-12-25T08:03:45.600Z,11.10
2022-12-25T08:06:14.012Z,11.10
2022-12-25T08:08:42.275Z,11.10
2022-12-25T08:11:11.359Z,11.10
2022-12-25T08:13:39.821Z,11.10
2022-12-25T08:16:10.894Z,11.10
2022-12-25T08:18:40.254Z,11.10
2022-12-25T08:21:11.655Z,11.00
2022-12-25T08:23:41.898Z,11.10
2022-12-25T08:26:13.569Z,11.10
2022-12-25T08:28:42.312Z,11.10
2022-12-25T08:31:12.395Z,11.10
2022-12-25T08:33:40.735Z,11.10
2022-12-25T08:36:12.204Z,11.10
2022-12-25T08:38:41.229Z,11.10
2022-12-25T08:41:11.037Z,11.10
2022-12-25T08:43:39.467Z,11.10
2022-12-25T08:46:08.759Z,11.10
2022-12-25T08:48:37.587Z,11.10
2022-12-25T08:51:06.323Z,11.10
2022-12-25T08:53:35.984Z,11.00
2022-12-25T08:56:05.467Z,11.10
2022-12-25T08:58:59.142Z,11.10
2022-12-25T09:01:27.535Z,11.10
2022-12-25T09:03:57.065Z,11.10
2022-12-25T09:06:25.353Z,11.10
2022-12-25T09:08:55.021Z,11.00
2022-12-25T09:11:24.130Z,11.10
2022-12-25T09:13:52.466Z,11.00
2022-12-25T09:16:22.980Z,11.00
2022-12-25T09:18:51.923Z,11.00
2022-12-25T09:21:20.953Z,11.10
2022-12-25T09:23:49.493Z,11.00
2022-12-25T09:26:20.544Z,11.10
2022-12-25T09:28:52.314Z,11.10
2022-12-25T09:31:22.191Z,11.10
2022-12-25T09:33:51.053Z,11.10
2022-12-25T09:36:21.281Z,11.10
2022-12-25T09:38:49.670Z,11.10
2022-12-25T09:41:24.122Z,11.10
2022-12-25T09:43:55.655Z,11.10
2022-12-25T09:46:33.179Z,11.10
2022-12-25T09:49:09.379Z,11.10
2022-12-25T09:51:40.850Z,11.20
2022-12-25T09:54:17.587Z,11.20
2022-12-25T09:56:47.272Z,11.20
2022-12-25T09:59:22.843Z,11.20
2022-12-25T10:02:12.106Z,11.20
2022-12-25T10:04:58.354Z,11.30
2022-12-25T10:07:32.340Z,11.30
2022-12-25T10:10:14.964Z,11.30
2022-12-25T10:12:55.228Z,11.30
2022-12-25T10:15:33.265Z,11.30
2022-12-25T10:18:31.257Z,11.40
2022-12-25T10:21:01.779Z,11.40
2022-12-25T10:23:33.697Z,11.40
2022-12-25T10:26:02.516Z,11.40
2022-12-25T10:28:40.271Z,11.40
2022-12-25T10:31:20.279Z,11.50
2022-12-25T10:33:50.514Z,11.60
2022-12-25T10:36:21.267Z,11.60
2022-12-25T10:38:50.276Z,11.60
2022-12-25T10:41:31.634Z,11.70
2022-12-25T10:44:01.585Z,11.70
2022-12-25T10:46:30.687Z,11.70
2022-12-25T10:49:01.317Z,11.70
2022-12-25T10:51:32.538Z,11.70
2022-12-25T10:54:02.552Z,11.70
2022-12-25T10:56:31.246Z,11.70
2022-12-25T10:59:07.407Z,11.70
2022-12-25T11:01:36.399Z,11.70
2022-12-25T11:04:04.843Z,11.70
2022-12-25T11:06:34.594Z,11.70
2022-12-25T11:09:04.033Z,11.70
2022-12-25T11:11:32.864Z,11.70
2022-12-25T11:14:03.573Z,11.80
2022-12-25T11:16:37.029Z,11.80
2022-12-25T11:19:25.791Z,11.90
2022-12-25T11:21:55.510Z,11.90
2022-12-25T11:24:27.302Z,11.90
2022-12-25T11:26:57.571Z,11.90
2022-12-25T11:29:37.140Z,11.90
2022-12-25T11:32:17.300Z,12.00
2022-12-25T11:34:47.358Z,11.90
2022-12-25T11:37:20.172Z,12.00
2022-12-25T11:39:48.910Z,12.00
2022-12-25T11:42:23.389Z,12.00
2022-12-25T11:44:56.020Z,12.10
2022-12-25T11:47:33.364Z,12.10
2022-12-25T11:50:06.500Z,12.10
2022-12-25T11:52:38.363Z,12.10
2022-12-25T11:55:19.210Z,12.10
2022-12-25T11:57:52.517Z,12.20
2022-12-25T12:00:21.649Z,12.20
2022-12-25T12:02:58.748Z,12.20
2022-12-25T12:05:35.267Z,12.20
2022-12-25T12:08:05.579Z,12.20
2022-12-25T12:10:43.659Z,12.30
2022-12-25T12:13:27.717Z,12.30
2022-12-25T12:15:57.702Z,12.30
2022-12-25T12:18:33.974Z,12.30
2022-12-25T12:21:04.992Z,12.40
2022-12-25T12:23:36.922Z,12.40
2022-12-25T12:26:05.957Z,12.40
2022-12-25T12:28:45.703Z,12.40
2022-12-25T12:31:14.900Z,12.40
2022-12-25T12:33:53.023Z,12.40
2022-12-25T12:40:37.632Z,12.50
2022-12-25T12:43:08.258Z,12.50
2022-12-25T12:45:38.689Z,12.50
2022-12-25T12:48:16.840Z,12.50
2022-12-25T12:50:47.642Z,12.60
2022-12-25T12:53:30.513Z,12.60
2022-12-25T12:56:11.173Z,12.60
2022-12-25T12:58:45.106Z,12.60
2022-12-25T13:01:25.060Z,12.60
2022-12-25T13:04:16.480Z,12.60
2022-12-25T13:06:51.981Z,12.70
2022-12-25T13:09:37.125Z,12.70
2022-12-25T13:12:08.255Z,12.80
2022-12-25T13:14:37.963Z,12.80
2022-12-25T13:17:08.787Z,12.80
2022-12-25T13:19:53.232Z,12.70
2022-12-25T13:22:26.762Z,12.80
2022-12-25T13:24:59.775Z,12.70
2022-12-25T13:27:31.160Z,12.70
2022-12-25T13:29:59.771Z,12.70
2022-12-25T13:32:31.352Z,12.70
2022-12-25T13:35:00.577Z,12.70
2022-12-25T13:37:32.312Z,12.70
2022-12-25T13:40:02.175Z,12.70
2022-12-25T13:42:32.218Z,12.70
2022-12-25T13:45:03.295Z,12.70
2022-12-25T13:47:33.869Z,12.70
2022-12-25T13:50:15.871Z,12.70
2022-12-25T13:52:45.519Z,12.80
2022-12-25T13:55:15.526Z,12.80
2022-12-25T13:57:48.646Z,12.80
2022-12-25T14:00:23.140Z,12.80
2022-12-25T14:02:52.696Z,12.80
2022-12-25T14:05:32.387Z,12.80
2022-12-25T14:08:20.377Z,12.80
2022-12-25T14:10:52.195Z,12.80
2022-12-25T14:13:23.451Z,12.80
2022-12-25T14:15:53.414Z,12.80
2022-12-25T14:18:24.129Z,12.80
2022-12-25T14:21:02.406Z,12.80
2022-12-25T14:23:42.475Z,12.90
2022-12-25T14:26:17.073Z,12.90
2022-12-25T14:28:49.585Z,12.90
2022-12-25T14:31:18.188Z,12.90
2022-12-25T14:33:48.020Z,12.90
2022-12-25T14:36:17.087Z,13.00
2022-12-25T14:38:58.062Z,13.00
2022-12-25T14:41:34.299Z,13.00
2022-12-25T14:44:06.290Z,13.00
2022-12-25T14:46:35.516Z,12.90
2022-12-25T14:49:06.696Z,13.00
2022-12-25T14:51:39.715Z,12.90
2022-12-25T14:54:19.280Z,12.90
2022-12-25T14:56:49.451Z,12.90
2022-12-25T14:59:20.270Z,12.90
2022-12-25T15:01:52.924Z,12.90
2022-12-25T15:04:22.341Z,12.90
2022-12-25T15:11:41.936Z,12.90
2022-12-25T15:14:10.269Z,12.90
2022-12-25T15:16:42.870Z,12.90
2022-12-25T15:19:14.606Z,12.90
2022-12-25T15:21:44.477Z,12.90
2022-12-25T15:24:14.086Z,12.90
2022-12-25T15:26:44.194Z,12.90
2022-12-25T15:29:12.523Z,12.90
2022-12-25T15:31:42.037Z,12.90
2022-12-25T15:34:17.807Z,12.80
2022-12-25T15:36:46.160Z,12.80
2022-12-25T15:39:14.501Z,12.80
2022-12-25T15:42:01.471Z,12.80
2022-12-25T15:44:29.884Z,12.70
2022-12-25T15:46:58.195Z,12.70
2022-12-25T15:49:26.517Z,12.70
2022-12-25T15:51:54.843Z,12.70
2022-12-25T15:54:23.128Z,12.70
2022-12-25T15:57:08.259Z,12.60
2022-12-25T15:59:36.570Z,12.60
2022-12-25T16:02:14.265Z,12.60
2022-12-25T16:04:42.869Z,12.60
2022-12-25T16:07:15.655Z,12.50
2022-12-25T16:09:44.540Z,12.50
2022-12-25T16:12:14.355Z,12.50
2022-12-25T16:14:42.791Z,12.40
2022-12-25T16:17:13.990Z,12.40
2022-12-25T16:19:42.825Z,12.40
2022-12-25T16:22:15.190Z,12.30
2022-12-25T16:24:43.546Z,12.30
2022-12-25T16:27:13.173Z,12.20
2022-12-25T16:29:42.299Z,12.30
2022-12-25T16:32:11.679Z,12.20
2022-12-25T16:34:40.785Z,12.20
2022-12-25T16:37:09.316Z,12.20
2022-12-25T16:39:38.705Z,12.10
2022-12-25T16:42:07.274Z,12.10
2022-12-25T16:44:38.592Z,12.10
2022-12-25T16:47:07.027Z,12.00
2022-12-25T16:49:35.348Z,12.00
2022-12-25T16:52:03.891Z,12.00
2022-12-25T16:54:32.161Z,11.90
2022-12-25T16:57:00.525Z,11.90
2022-12-25T16:59:29.779Z,11.90
2022-12-25T17:01:59.541Z,11.80
2022-12-25T17:04:29.353Z,11.80
2022-12-25T17:06:58.248Z,11.80
2022-12-25T17:09:26.554Z,11.80
2022-12-25T17:11:54.875Z,11.80
2022-12-25T17:14:23.200Z,11.80
2022-12-25T17:16:51.656Z,11.70
2022-12-25T17:19:23.746Z,11.80
2022-12-25T17:21:52.491Z,11.70
2022-12-25T17:24:20.777Z,11.80
2022-12-25T17:26:49.867Z,11.80
2022-12-25T17:29:22.030Z,11.80
2022-12-25T17:31:51.261Z,11.80
2022-12-25T17:34:21.163Z,11.70
2022-12-25T17:36:49.508Z,11.70
2022-12-25T17:39:17.785Z,11.70
2022-12-25T17:41:46.371Z,11.70
2022-12-25T17:44:14.607Z,11.70
2022-12-25T17:46:43.086Z,11.70
2022-12-25T17:49:16.742Z,11.70
2022-12-25T17:51:47.282Z,11.70
2022-12-25T17:54:15.724Z,11.70
2022-12-25T17:56:44.013Z,11.70
2022-12-25T17:59:18.245Z,11.70
2022-12-25T18:01:49.144Z,11.70
2022-12-25T18:04:17.752Z,11.70
2022-12-25T18:06:47.656Z,11.70
2022-12-25T18:09:15.992Z,11.70
2022-12-25T18:11:44.555Z,11.60
2022-12-25T18:14:14.971Z,11.60
2022-12-25T18:16:45.358Z,11.60
2022-12-25T18:19:15.325Z,11.60
2022-12-25T18:21:43.671Z,11.60
2022-12-25T18:24:13.571Z,11.60
2022-12-25T18:26:42.258Z,11.60
2022-12-25T18:29:10.548Z,11.60
2022-12-25T18:31:38.860Z,11.60
2022-12-25T18:34:07.209Z,11.60
2022-12-25T18:36:36.901Z,11.50
2022-12-25T18:39:05.738Z,11.60
2022-12-25T18:41:56.193Z,11.60
2022-12-25T18:48:30.880Z,11.50
2022-12-25T18:51:01.187Z,11.40
2022-12-25T18:53:31.025Z,11.40
2022-12-25T18:56:06.244Z,11.40
2022-12-25T19:01:22.704Z,11.30
2022-12-25T19:03:52.595Z,11.30
2022-12-25T19:06:25.244Z,11.30
2022-12-25T19:08:53.939Z,11.30
2022-12-25T19:11:22.920Z,11.30
2022-12-25T19:13:52.607Z,11.30
2022-12-25T19:16:21.010Z,11.30
2022-12-25T19:18:49.315Z,11.20
2022-12-25T19:21:17.609Z,11.20
2022-12-25T19:23:46.000Z,11.20
2022-12-25T19:26:14.311Z,11.10
2022-12-25T19:28:43.049Z,11.10
2022-12-25T19:31:12.777Z,11.10
2022-12-25T19:33:42.610Z,11.00
2022-12-25T19:36:13.745Z,11.00
2022-12-25T19:38:42.762Z,11.00
2022-12-25T19:41:13.301Z,11.00
2022-12-25T19:43:43.512Z,10.90
2022-12-25T19:46:18.366Z,10.90
2022-12-25T19:48:46.996Z,10.90
2022-12-25T19:51:21.642Z,10.80
2022-12-25T19:53:50.957Z,10.80
2022-12-25T19:56:19.550Z,10.80
2022-12-25T19:58:47.849Z,10.80
2022-12-25T20:01:19.072Z,10.70
2022-12-25T20:03:48.110Z,10.70
2022-12-25T20:06:19.858Z,10.70
2022-12-25T20:08:49.415Z,10.70
2022-12-25T20:11:18.475Z,10.70
2022-12-25T20:13:47.154Z,10.60
2022-12-25T20:16:17.160Z,10.60
2022-12-25T20:18:45.436Z,10.60
2022-12-25T20:21:15.417Z,10.50
2022-12-25T20:23:45.105Z,10.50
2022-12-25T20:26:14.649Z,10.50
2022-12-25T20:28:43.818Z,10.50
2022-12-25T20:31:21.369Z,10.50
2022-12-25T20:33:50.851Z,10.50
2022-12-25T20:36:19.427Z,10.50
2022-12-25T20:38:47.753Z,10.40
2022-12-25T20:41:27.495Z,10.50
2022-12-25T20:43:57.191Z,10.50
2022-12-25T20:46:27.478Z,10.50
2022-12-25T20:48:55.963Z,10.50
2022-12-25T20:51:26.505Z,10.50
2022-12-25T20:53:55.646Z,10.50
2022-12-25T20:56:25.575Z,10.40
2022-12-25T20:58:55.713Z,10.40
2022-12-25T21:01:24.364Z,10.40
2022-12-25T21:03:54.640Z,10.40
2022-12-25T21:06:23.703Z,10.40
2022-12-25T21:08:51.980Z,10.30
2022-12-25T21:11:21.293Z,10.30
2022-12-25T21:13:49.676Z,10.30
2022-12-25T21:16:20.638Z,10.30
2022-12-25T21:18:49.842Z,10.20
2022-12-25T21:21:20.040Z,10.20
2022-12-25T21:23:48.803Z,10.20
2022-12-25T21:26:19.485Z,10.10
2022-12-25T21:28:48.288Z,10.20
2022-12-25T21:31:16.699Z,10.10
2022-12-25T21:33:53.017Z,10.10
2022-12-25T21:36:26.730Z,10.10
2022-12-25T21:38:57.568Z,10.10
2022-12-25T21:41:27.038Z,10.10
2022-12-25T21:43:56.049Z,10.10
2022-12-25T21:46:24.482Z,10.10
2022-12-25T21:48:52.963Z,10.10
2022-12-25T21:51:41.641Z,10.10
2022-12-25T21:54:11.361Z,10.10
2022-12-25T21:56:44.780Z,10.10
2022-12-25T21:59:15.440Z,10.00
2022-12-25T22:01:44.425Z,10.00
2022-12-25T22:04:14.466Z,10.00
2022-12-25T22:07:02.153Z,9.90
2022-12-25T22:09:31.029Z,10.00
2022-12-25T22:12:16.511Z,9.90
2022-12-25T22:14:56.799Z,9.90
2022-12-25T22:17:45.309Z,9.90
2022-12-25T22:20:16.013Z,9.90
2022-12-25T22:22:46.488Z,9.90
2022-12-25T22:25:15.941Z,9.90
2022-12-25T22:27:45.921Z,9.80
2022-12-25T22:30:17.832Z,9.80
2022-12-25T22:32:46.374Z,9.80
2022-12-25T22:35:16.078Z,9.80
2022-12-25T22:37:46.460Z,9.80
2022-12-25T22:40:16.895Z,9.80
2022-12-25T22:42:45.198Z,9.80
2022-12-25T22:45:13.778Z,9.80
2022-12-25T22:47:42.156Z,9.80
2022-12-25T22:50:11.905Z,9.80
2022-12-25T22:52:40.263Z,9.80
2022-12-25T22:55:11.384Z,9.80
2022-12-25T22:57:39.704Z,9.80
2022-12-25T23:00:09.836Z,9.80
2022-12-25T23:02:38.457Z,9.80
2022-12-25T23:05:07.553Z,9.80
2022-12-25T23:07:35.889Z,9.90
2022-12-25T23:10:05.045Z,9.90
2022-12-25T23:12:52.044Z,9.90
2022-12-25T23:15:20.345Z,9.90
2022-12-25T23:18:06.182Z,9.90
2022-12-25T23:20:52.004Z,9.90
2022-12-25T23:23:37.616Z,9.90
2022-12-25T23:26:09.739Z,10.00
2022-12-25T23:28:58.682Z,10.00
2022-12-25T23:31:30.115Z,10.00
2022-12-25T23:34:00.680Z,10.00
2022-12-25T23:36:29.245Z,10.00
2022-12-25T23:39:01.618Z,10.00
2022-12-25T23:41:33.881Z,10.00
2022-12-25T23:44:03.507Z,10.00
2022-12-25T23:46:31.917Z,10.10
2022-12-25T23:49:00.324Z,10.10
2022-12-25T23:51:28.661Z,10.10
2022-12-25T23:53:57.035Z,10.00
2022-12-25T23:56:25.460Z,10.10
2022-12-25T23:58:53.766Z,10.10
